Time;durP1;ratioP1;P1;durP2;ratioP2;P2;SDS_P1;SDS_P2;PMS_P1;PMS_P2;Temp;Humidity;BMP_temperature;BMP_pressure;BME280_temperature;BME280_humidity;BME280_pressure;Samples;Min_cycle;Max_cycle;Signal;HPM_P1;HPM_P2
2023/03/01 00:01:37;;;;;;;12.82;8.55;;;;;;;;;;5114060;28;20016;-38
2023/03/01 00:04:03;;;;;;;13.98;8.77;;;;;;;;;;5113616;28;20016;-41
2023/03/01 00:06:29;;;;;;;12.80;8.48;;;;;;;;;;5113640;28;20028;-41
2023/03/01 00:08:55;;;;;;;15.05;8.40;;;;;;;;;;5113999;28;20504;-35
2023/03/01 00:11:23;;;;;;;14.75;8.30;;;;;;;;;;5113515;28;20102;-42
2023/03/01 00:13:50;;;;;;;12.10;8.45;;;;;;;;;;5112998;28;20035;-39
2023/03/01 00:16:17;;;;;;;14.80;8.77;;;;;;;;;;5112829;28;20038;-40
2023/03/01 00:18:43;;;;;;;14.23;8.50;;;;;;;;;;5113331;27;20119;-41
2023/03/01 00:21:10;;;;;;;12.38;7.97;;;;;;;;;;5112351;28;20039;-41
2023/03/01 00:23:36;;;;;;;16.10;8.52;;;;;;;;;;5113453;28;20028;-33
2023/03/01 00:26:06;;;;;;;11.73;7.63;;;;;;;;;;5113438;28;20069;-31
2023/03/01 00:28:32;;;;;;;12.95;8.57;;;;;;;;;;5112901;28;20023;-32
2023/03/01 00:31:03;;;;;;;11.77;7.78;;;;;;;;;;5112723;27;20031;-30
2023/03/01 00:33:29;;;;;;;12.73;8.48;;;;;;;;;;5112951;28;20037;-37
2023/03/01 00:35:55;;;;;;;11.90;7.65;;;;;;;;;;5113236;28;20417;-33
2023/03/01 00:38:21;;;;;;;13.20;8.20;;;;;;;;;;5113192;28;20184;-30
2023/03/01 00:40:47;;;;;;;13.27;8.10;;;;;;;;;;5112522;28;20073;-34
2023/03/01 00:43:13;;;;;;;11.93;7.60;;;;;;;;;;5112408;28;20031;-30
2023/03/01 00:45:39;;;;;;;12.88;7.93;;;;;;;;;;5112454;28;20024;-40
2023/03/01 00:48:05;;;;;;;12.90;7.70;;;;;;;;;;5112374;28;20016;-38
2023/03/01 00:50:31;;;;;;;12.48;7.70;;;;;;;;;;5112422;28;20031;-40
2023/03/01 00:52:57;;;;;;;11.00;7.75;;;;;;;;;;5112556;28;20028;-36
2023/03/01 00:55:24;;;;;;;11.27;8.02;;;;;;;;;;5112269;28;20015;-38
2023/03/01 00:57:50;;;;;;;14.30;7.90;;;;;;;;;;5110691;28;20564;-40
2023/03/01 01:00:16;;;;;;;11.77;7.88;;;;;;;;;;5112215;28;20110;-40
2023/03/01 01:02:42;;;;;;;11.80;7.53;;;;;;;;;;5112378;28;20080;-38
2023/03/01 01:05:08;;;;;;;13.13;8.38;;;;;;;;;;5112460;28;20032;-40
2023/03/01 01:07:34;;;;;;;13.85;8.27;;;;;;;;;;5112255;28;20027;-37
2023/03/01 01:10:00;;;;;;;10.70;7.10;;;;;;;;;;5112110;28;20038;-31
2023/03/01 01:12:26;;;;;;;13.32;7.53;;;;;;;;;;5112822;28;20028;-30
2023/03/01 01:14:52;;;;;;;12.27;7.63;;;;;;;;;;5112385;28;20095;-40
2023/03/01 01:17:18;;;;;;;12.00;7.22;;;;;;;;;;5111748;28;20047;-40
2023/03/01 01:19:44;;;;;;;15.38;7.93;;;;;;;;;;5111791;28;20393;-37
2023/03/01 01:22:10;;;;;;;10.88;7.25;;;;;;;;;;5111053;28;20041;-40
2023/03/01 01:24:36;;;;;;;14.13;8.10;;;;;;;;;;5112132;28;20026;-30
2023/03/01 01:27:02;;;;;;;12.25;7.88;;;;;;;;;;5111797;28;20020;-32
2023/03/01 01:29:28;;;;;;;14.40;8.05;;;;;;;;;;5111882;28;20042;-31
2023/03/01 01:31:54;;;;;;;12.90;8.70;;;;;;;;;;5111738;28;20553;-34
2023/03/01 01:34:21;;;;;;;11.35;7.70;;;;;;;;;;5111845;28;20035;-32
2023/03/01 01:36:53;;;;;;;12.55;8.10;;;;;;;;;;5111549;28;20032;-31
2023/03/01 01:39:19;;;;;;;13.70;7.88;;;;;;;;;;5111606;28;20030;-33
2023/03/01 01:41:45;;;;;;;13.27;7.90;;;;;;;;;;5111568;28;20075;-35
2023/03/01 01:44:11;;;;;;;11.43;7.97;;;;;;;;;;5111638;28;20095;-31
2023/03/01 01:46:39;;;;;;;12.27;8.05;;;;;;;;;;5111430;28;20024;-32
2023/03/01 01:49:07;;;;;;;14.18;8.70;;;;;;;;;;5111767;28;20039;-31
2023/03/01 01:51:38;;;;;;;12.70;7.95;;;;;;;;;;5111717;28;20030;-32
2023/03/01 01:54:06;;;;;;;12.40;7.95;;;;;;;;;;5111909;28;20097;-34
2023/03/01 01:56:33;;;;;;;13.93;8.45;;;;;;;;;;5111665;28;20028;-34
2023/03/01 01:58:59;;;;;;;13.65;8.48;;;;;;;;;;5111671;28;20028;-33
2023/03/01 02:01:25;;;;;;;13.00;7.85;;;;;;;;;;5111971;28;20028;-37
2023/03/01 02:03:51;;;;;;;12.32;7.93;;;;;;;;;;5111563;28;20026;-36
2023/03/01 02:06:20;;;;;;;12.90;8.35;;;;;;;;;;5111297;28;20067;-29
2023/03/01 02:08:47;;;;;;;13.38;8.30;;;;;;;;;;5111685;28;20054;-31
2023/03/01 02:11:17;;;;;;;11.43;7.97;;;;;;;;;;5111536;28;20094;-32
2023/03/01 02:13:43;;;;;;;12.20;8.10;;;;;;;;;;5111314;28;20127;-31
2023/03/01 02:16:11;;;;;;;12.15;7.60;;;;;;;;;;5111353;28;20032;-31
2023/03/01 02:18:38;;;;;;;13.48;7.93;;;;;;;;;;5112314;28;20119;-34
2023/03/01 02:21:04;;;;;;;13.18;7.78;;;;;;;;;;5111750;28;20103;-30
2023/03/01 02:23:30;;;;;;;15.30;8.07;;;;;;;;;;5111344;28;20110;-30
2023/03/01 02:26:07;;;;;;;13.77;8.27;;;;;;;;;;5111856;28;20496;-32
2023/03/01 02:28:34;;;;;;;11.13;7.55;;;;;;;;;;5110354;28;20447;-34
2023/03/01 02:33:47;;;;;;;14.40;8.40;;;;;;;;;;5111696;28;20039;-32
2023/03/01 02:36:16;;;;;;;12.38;8.00;;;;;;;;;;5111098;28;20019;-31
2023/03/01 02:38:43;;;;;;;14.45;8.60;;;;;;;;;;5111082;28;20111;-37
2023/03/01 02:41:09;;;;;;;14.10;8.07;;;;;;;;;;5110982;28;20028;-40
2023/03/01 02:43:36;;;;;;;13.98;8.30;;;;;;;;;;5112649;28;20452;-39
2023/03/01 02:46:22;;;;;;;11.90;7.68;;;;;;;;;;5114824;28;20019;-41
2023/03/01 02:48:50;;;;;;;15.25;8.52;;;;;;;;;;5114828;28;20110;-39
2023/03/01 02:51:19;;;;;;;10.75;7.47;;;;;;;;;;5114684;28;20480;-34
2023/03/01 02:54:04;;;;;;;13.57;8.25;;;;;;;;;;5114688;28;20172;-40
2023/03/01 02:56:30;;;;;;;11.90;7.75;;;;;;;;;;5114427;28;20020;-37
2023/03/01 02:59:00;;;;;;;12.45;7.85;;;;;;;;;;5114482;28;20027;-40
2023/03/01 03:01:36;;;;;;;12.35;7.38;;;;;;;;;;5114815;28;20019;-41
2023/03/01 03:04:16;;;;;;;11.23;7.13;;;;;;;;;;5114380;28;20019;-41
2023/03/01 03:06:43;;;;;;;13.48;7.97;;;;;;;;;;5114348;28;20011;-38
2023/03/01 03:09:09;;;;;;;11.90;7.72;;;;;;;;;;5114465;28;20024;-40
2023/03/01 03:11:36;;;;;;;12.57;7.72;;;;;;;;;;5114330;28;20146;-35
2023/03/01 03:14:03;;;;;;;15.00;8.40;;;;;;;;;;5114351;28;20038;-39
2023/03/01 03:16:30;;;;;;;12.10;7.40;;;;;;;;;;5113957;28;20068;-41
2023/03/01 03:19:04;;;;;;;9.65;6.72;;;;;;;;;;5114175;28;20038;-39
2023/03/01 03:21:34;;;;;;;13.50;7.85;;;;;;;;;;5114172;28;20103;-36
2023/03/01 03:24:00;;;;;;;12.30;7.65;;;;;;;;;;5115260;28;20489;-37
2023/03/01 03:26:26;;;;;;;13.18;7.70;;;;;;;;;;5113885;28;20024;-38
2023/03/01 03:28:52;;;;;;;11.73;7.43;;;;;;;;;;5113944;28;20031;-34
2023/03/01 03:31:18;;;;;;;12.88;7.25;;;;;;;;;;5114480;28;20469;-36
2023/03/01 03:33:44;;;;;;;12.63;7.28;;;;;;;;;;5113992;28;20477;-38
2023/03/01 03:36:12;;;;;;;10.30;6.95;;;;;;;;;;5114227;28;20031;-36
2023/03/01 03:38:39;;;;;;;12.95;7.93;;;;;;;;;;5114186;28;20034;-39
2023/03/01 03:41:07;;;;;;;12.88;7.35;;;;;;;;;;5113750;28;20027;-41
2023/03/01 03:43:33;;;;;;;11.43;7.75;;;;;;;;;;5113987;28;20094;-35
2023/03/01 03:46:00;;;;;;;12.48;7.60;;;;;;;;;;5114270;27;20024;-37
2023/03/01 03:48:26;;;;;;;11.10;7.38;;;;;;;;;;5114107;28;20107;-35
2023/03/01 03:50:54;;;;;;;11.63;7.55;;;;;;;;;;5114208;27;20051;-36
2023/03/01 03:53:20;;;;;;;11.15;7.20;;;;;;;;;;5113591;27;20028;-41
2023/03/01 03:55:49;;;;;;;12.80;7.70;;;;;;;;;;5112433;28;20027;-38
2023/03/01 03:58:16;;;;;;;10.13;7.22;;;;;;;;;;5113205;28;20094;-39
2023/03/01 04:00:43;;;;;;;13.13;7.90;;;;;;;;;;5113451;28;20035;-39
2023/03/01 04:03:09;;;;;;;10.60;6.82;;;;;;;;;;5113322;28;20023;-41
2023/03/01 04:05:36;;;;;;;11.13;7.35;;;;;;;;;;5113225;28;20027;-38
2023/03/01 04:08:02;;;;;;;10.18;6.82;;;;;;;;;;5112695;28;20047;-37
2023/03/01 04:10:29;;;;;;;11.77;7.00;;;;;;;;;;5113409;28;20027;-34
2023/03/01 04:12:58;;;;;;;15.68;7.32;;;;;;;;;;5113188;28;20334;-38
2023/03/01 04:15:25;;;;;;;12.45;7.40;;;;;;;;;;5113107;28;20023;-31
2023/03/01 04:17:52;;;;;;;13.75;7.13;;;;;;;;;;5113903;28;20114;-30
2023/03/01 04:20:26;;;;;;;13.45;7.30;;;;;;;;;;5112930;28;20016;-34
2023/03/01 04:22:53;;;;;;;10.20;6.85;;;;;;;;;;5112961;28;20026;-35
2023/03/01 04:25:19;;;;;;;12.55;7.55;;;;;;;;;;5112872;28;20404;-34
2023/03/01 04:27:45;;;;;;;11.55;7.10;;;;;;;;;;5112775;28;20054;-31
2023/03/01 04:30:11;;;;;;;13.88;7.45;;;;;;;;;;5113435;28;20389;-30
2023/03/01 04:32:37;;;;;;;9.57;7.03;;;;;;;;;;5113093;28;20036;-33
2023/03/01 04:35:04;;;;;;;11.98;7.53;;;;;;;;;;5112846;28;20023;-32
2023/03/01 04:37:30;;;;;;;10.88;7.53;;;;;;;;;;5112526;28;20382;-30
2023/03/01 04:39:56;;;;;;;11.25;6.90;;;;;;;;;;5112513;28;20031;-31
2023/03/01 04:42:22;;;;;;;13.15;7.32;;;;;;;;;;5112601;28;20026;-30
2023/03/01 04:44:51;;;;;;;11.02;7.22;;;;;;;;;;5112616;28;20051;-31
2023/03/01 04:47:17;;;;;;;10.60;7.03;;;;;;;;;;5112189;28;20023;-35
2023/03/01 04:49:43;;;;;;;13.45;7.60;;;;;;;;;;5112657;28;20024;-34
2023/03/01 04:52:09;;;;;;;10.90;6.75;;;;;;;;;;5112348;28;20520;-31
2023/03/01 04:54:35;;;;;;;10.45;6.85;;;;;;;;;;5112347;28;20034;-30
2023/03/01 04:57:02;;;;;;;12.27;7.07;;;;;;;;;;5112664;27;20027;-32
2023/03/01 04:59:29;;;;;;;10.43;6.88;;;;;;;;;;5113112;28;20035;-30
2023/03/01 05:01:56;;;;;;;10.55;7.03;;;;;;;;;;5112100;27;20024;-41
2023/03/01 05:04:22;;;;;;;11.20;7.40;;;;;;;;;;5112255;28;20427;-31
2023/03/01 05:06:48;;;;;;;10.32;7.30;;;;;;;;;;5111974;28;20019;-30
2023/03/01 05:09:14;;;;;;;13.93;7.53;;;;;;;;;;5112414;28;20030;-30
2023/03/01 05:11:40;;;;;;;12.02;7.95;;;;;;;;;;5112179;28;20102;-31
2023/03/01 05:14:07;;;;;;;12.38;7.32;;;;;;;;;;5112383;28;20510;-33
2023/03/01 05:16:33;;;;;;;14.40;7.63;;;;;;;;;;5111790;28;20019;-30
2023/03/01 05:18:59;;;;;;;11.82;7.40;;;;;;;;;;5111912;28;20036;-30
2023/03/01 05:21:26;;;;;;;11.63;7.70;;;;;;;;;;5111077;28;20114;-30
2023/03/01 05:23:52;;;;;;;13.57;6.93;;;;;;;;;;5112081;28;20015;-31
2023/03/01 05:26:19;;;;;;;12.65;7.55;;;;;;;;;;5112451;28;20085;-33
2023/03/01 05:28:45;;;;;;;11.80;7.18;;;;;;;;;;5111889;28;20024;-31
2023/03/01 05:31:11;;;;;;;11.45;7.50;;;;;;;;;;5111894;28;20035;-33
2023/03/01 05:33:38;;;;;;;11.73;7.47;;;;;;;;;;5111960;28;20027;-33
2023/03/01 05:36:04;;;;;;;13.88;7.22;;;;;;;;;;5111878;28;20384;-32
2023/03/01 05:38:30;;;;;;;11.93;7.82;;;;;;;;;;5111892;28;20553;-30
2023/03/01 05:40:56;;;;;;;11.00;7.22;;;;;;;;;;5110627;28;20015;-31
2023/03/01 05:43:22;;;;;;;11.07;7.32;;;;;;;;;;5110302;28;20023;-32
2023/03/01 05:45:48;;;;;;;18.95;11.32;;;;;;;;;;5111055;28;20019;-33
2023/03/01 05:48:14;;;;;;;21.55;14.30;;;;;;;;;;5111788;28;20020;-40
2023/03/01 05:50:41;;;;;;;21.65;13.95;;;;;;;;;;5111611;28;20030;-41
2023/03/01 05:53:10;;;;;;;24.80;14.82;;;;;;;;;;5111470;28;20024;-40
2023/03/01 05:55:37;;;;;;;23.83;14.68;;;;;;;;;;5111148;28;20031;-41
2023/03/01 05:58:04;;;;;;;18.73;13.35;;;;;;;;;;5111304;28;20019;-42
2023/03/01 06:00:30;;;;;;;22.15;13.52;;;;;;;;;;5111258;28;20059;-40
2023/03/01 06:02:57;;;;;;;23.63;13.75;;;;;;;;;;5111703;28;20027;-41
2023/03/01 06:05:23;;;;;;;19.70;12.85;;;;;;;;;;5111524;28;20402;-32
2023/03/01 06:07:50;;;;;;;21.50;13.35;;;;;;;;;;5111560;28;20023;-36
2023/03/01 06:10:16;;;;;;;19.20;12.95;;;;;;;;;;5111593;28;20509;-32
2023/03/01 06:12:44;;;;;;;21.23;13.98;;;;;;;;;;5111134;28;20497;-34
2023/03/01 06:15:11;;;;;;;20.58;13.70;;;;;;;;;;5111310;28;20583;-31
2023/03/01 06:17:38;;;;;;;18.75;11.68;;;;;;;;;;5111652;28;20028;-32
2023/03/01 06:20:05;;;;;;;19.00;12.13;;;;;;;;;;5115198;28;20016;-31
2023/03/01 06:22:31;;;;;;;18.83;12.35;;;;;;;;;;5115114;28;20024;-40
2023/03/01 06:24:57;;;;;;;20.20;12.55;;;;;;;;;;5116189;27;20367;-42
2023/03/01 06:27:23;;;;;;;17.95;11.80;;;;;;;;;;5114986;28;20020;-31
2023/03/01 06:29:49;;;;;;;17.30;12.15;;;;;;;;;;5115200;28;20055;-31
2023/03/01 06:32:15;;;;;;;18.13;11.70;;;;;;;;;;5115642;28;20027;-42
2023/03/01 06:34:41;;;;;;;20.10;12.30;;;;;;;;;;5115774;28;20397;-38
2023/03/01 06:37:08;;;;;;;22.38;12.20;;;;;;;;;;5114686;28;20039;-41
2023/03/01 06:39:34;;;;;;;18.55;11.95;;;;;;;;;;5115126;28;20051;-40
2023/03/01 06:42:00;;;;;;;17.85;10.88;;;;;;;;;;5114863;28;20035;-41
2023/03/01 06:44:27;;;;;;;20.33;11.95;;;;;;;;;;5114917;28;20115;-39
2023/03/01 06:46:53;;;;;;;17.92;11.23;;;;;;;;;;5114594;28;20033;-38
2023/03/01 06:49:20;;;;;;;17.67;11.30;;;;;;;;;;5114896;28;20031;-35
2023/03/01 06:51:46;;;;;;;15.70;10.63;;;;;;;;;;5114966;28;20035;-37
2023/03/01 06:54:12;;;;;;;17.83;10.77;;;;;;;;;;5114862;28;20451;-34
2023/03/01 06:56:38;;;;;;;18.58;12.07;;;;;;;;;;5114634;28;20034;-31
2023/03/01 06:59:04;;;;;;;16.42;10.55;;;;;;;;;;5114415;28;20063;-32
2023/03/01 07:01:30;;;;;;;16.70;10.65;;;;;;;;;;5114473;28;20077;-35
2023/03/01 07:03:56;;;;;;;14.93;10.65;;;;;;;;;;5115260;28;20042;-32
2023/03/01 07:06:23;;;;;;;15.90;10.88;;;;;;;;;;5114431;28;20127;-32
2023/03/01 07:08:49;;;;;;;15.75;10.55;;;;;;;;;;5114373;28;20032;-34
2023/03/01 07:11:15;;;;;;;17.67;11.23;;;;;;;;;;5114289;28;20042;-34
2023/03/01 07:13:41;;;;;;;14.50;9.70;;;;;;;;;;5112948;28;20028;-31
2023/03/01 07:16:08;;;;;;;15.80;9.82;;;;;;;;;;5114018;28;20047;-42
2023/03/01 07:18:34;;;;;;;14.32;9.10;;;;;;;;;;5114976;28;20039;-40
2023/03/01 07:21:04;;;;;;;15.30;9.38;;;;;;;;;;5113160;28;20020;-42
2023/03/01 07:23:30;;;;;;;15.57;9.73;;;;;;;;;;5114761;28;20028;-42
2023/03/01 07:25:56;;;;;;;14.30;9.85;;;;;;;;;;5114413;28;20016;-37
2023/03/01 07:28:25;;;;;;;14.82;9.27;;;;;;;;;;5114097;28;20027;-33
2023/03/01 07:30:51;;;;;;;14.60;9.40;;;;;;;;;;5112781;28;20027;-34
2023/03/01 07:33:17;;;;;;;15.90;9.30;;;;;;;;;;5114122;28;20406;-37
2023/03/01 07:35:43;;;;;;;13.25;9.45;;;;;;;;;;5112981;28;20015;-34
2023/03/01 07:38:09;;;;;;;16.30;9.80;;;;;;;;;;5113816;28;20036;-38
2023/03/01 07:40:35;;;;;;;15.63;9.30;;;;;;;;;;5113740;28;20023;-36
2023/03/01 07:43:01;;;;;;;15.57;8.88;;;;;;;;;;5112927;28;20024;-36
2023/03/01 07:45:28;;;;;;;16.75;8.68;;;;;;;;;;5113580;28;20394;-39
2023/03/01 07:47:54;;;;;;;14.20;8.68;;;;;;;;;;5113364;28;20016;-36
2023/03/01 07:50:20;;;;;;;13.85;8.85;;;;;;;;;;5113586;27;20028;-36
2023/03/01 07:52:47;;;;;;;14.27;8.88;;;;;;;;;;5113491;28;20027;-32
2023/03/01 07:55:14;;;;;;;11.82;8.15;;;;;;;;;;5113507;28;20486;-31
2023/03/01 07:57:40;;;;;;;16.23;9.23;;;;;;;;;;5113357;28;20110;-32
2023/03/01 08:00:07;;;;;;;14.00;9.15;;;;;;;;;;5113538;28;20594;-41
2023/03/01 08:02:33;;;;;;;12.70;8.20;;;;;;;;;;5113294;28;20393;-35
2023/03/01 08:04:59;;;;;;;14.13;8.90;;;;;;;;;;5113281;28;20110;-34
2023/03/01 08:07:25;;;;;;;12.82;8.10;;;;;;;;;;5113046;28;20051;-41
2023/03/01 08:09:51;;;;;;;11.95;8.32;;;;;;;;;;5114399;28;20648;-33
2023/03/01 08:12:17;;;;;;;12.88;8.52;;;;;;;;;;5113158;28;20106;-41
2023/03/01 08:14:43;;;;;;;13.48;8.38;;;;;;;;;;5113578;28;20023;-41
2023/03/01 08:17:09;;;;;;;12.90;8.48;;;;;;;;;;5112758;28;20032;-33
2023/03/01 08:19:35;;;;;;;12.85;8.73;;;;;;;;;;5112829;28;20076;-41
2023/03/01 08:22:04;;;;;;;14.10;8.55;;;;;;;;;;5112393;28;20130;-43
2023/03/01 08:24:30;;;;;;;13.13;8.68;;;;;;;;;;5112782;28;20023;-42
2023/03/01 08:26:56;;;;;;;13.27;7.75;;;;;;;;;;5112767;28;20015;-42
2023/03/01 08:29:24;;;;;;;13.50;8.15;;;;;;;;;;5112859;28;20055;-40
2023/03/01 08:31:50;;;;;;;11.85;8.10;;;;;;;;;;5112655;28;20055;-42
2023/03/01 08:34:17;;;;;;;27.45;16.23;;;;;;;;;;5112899;28;20481;-33
2023/03/01 08:36:44;;;;;;;31.30;15.60;;;;;;;;;;5112564;28;20031;-41
2023/03/01 08:39:14;;;;;;;25.92;15.43;;;;;;;;;;5113564;28;20176;-37
2023/03/01 08:41:40;;;;;;;23.25;14.93;;;;;;;;;;5112130;28;20072;-38
2023/03/01 08:44:06;;;;;;;25.42;14.15;;;;;;;;;;5112703;28;20019;-37
2023/03/01 08:46:34;;;;;;;24.85;15.18;;;;;;;;;;5112308;28;20465;-41
2023/03/01 08:49:00;;;;;;;21.08;14.18;;;;;;;;;;5112461;28;20077;-38
2023/03/01 08:51:26;;;;;;;26.88;17.48;;;;;;;;;;5112393;28;20047;-36
2023/03/01 08:53:53;;;;;;;26.02;15.35;;;;;;;;;;5112419;28;20028;-38
2023/03/01 08:56:19;;;;;;;24.05;14.95;;;;;;;;;;5112175;28;20038;-35
2023/03/01 08:58:47;;;;;;;23.52;15.30;;;;;;;;;;5113097;28;20028;-38
2023/03/01 09:01:15;;;;;;;25.13;15.20;;;;;;;;;;5112281;28;20039;-33
2023/03/01 09:03:41;;;;;;;21.67;15.07;;;;;;;;;;5113366;28;20103;-33
2023/03/01 09:06:07;;;;;;;24.00;14.48;;;;;;;;;;5111999;28;20478;-32
2023/03/01 09:08:38;;;;;;;23.48;14.23;;;;;;;;;;5110817;28;20023;-41
2023/03/01 09:11:04;;;;;;;22.35;13.50;;;;;;;;;;5112953;28;20034;-39
2023/03/01 09:13:31;;;;;;;23.42;13.50;;;;;;;;;;5112514;28;20027;-32
2023/03/01 09:15:57;;;;;;;20.17;12.68;;;;;;;;;;5111899;27;20023;-35
2023/03/01 09:18:23;;;;;;;20.35;12.85;;;;;;;;;;5111855;28;20024;-34
2023/03/01 09:20:49;;;;;;;18.83;12.48;;;;;;;;;;5111974;28;20027;-31
2023/03/01 09:23:15;;;;;;;18.35;12.27;;;;;;;;;;5111920;28;20493;-40
2023/03/01 09:25:41;;;;;;;18.90;12.05;;;;;;;;;;5111894;28;20051;-37
2023/03/01 09:28:07;;;;;;;17.48;11.55;;;;;;;;;;5113013;28;20106;-34
2023/03/01 09:30:33;;;;;;;18.40;11.75;;;;;;;;;;5111862;28;20128;-37
2023/03/01 09:32:59;;;;;;;15.70;11.20;;;;;;;;;;5111750;28;20088;-35
2023/03/01 09:35:25;;;;;;;17.05;10.38;;;;;;;;;;5111774;28;20424;-39
2023/03/01 09:37:51;;;;;;;19.48;10.52;;;;;;;;;;5111538;28;20035;-41
2023/03/01 09:40:19;;;;;;;16.05;10.65;;;;;;;;;;5111778;28;20462;-42
2023/03/01 09:43:07;;;;;;;15.45;10.15;;;;;;;;;;5111661;28;20028;-41
2023/03/01 09:45:35;;;;;;;15.38;10.10;;;;;;;;;;5111649;28;20023;-30
2023/03/01 09:48:02;;;;;;;15.55;10.13;;;;;;;;;;5112319;28;20020;-42
2023/03/01 09:50:32;;;;;;;15.20;9.80;;;;;;;;;;5112662;28;20489;-36
2023/03/01 09:53:06;;;;;;;13.75;9.05;;;;;;;;;;5112802;28;20081;-42
2023/03/01 09:55:32;;;;;;;14.65;9.57;;;;;;;;;;5117045;28;20513;-33
2023/03/01 09:58:18;;;;;;;13.10;9.10;;;;;;;;;;5115697;28;20031;-42
2023/03/01 10:00:47;;;;;;;13.65;9.00;;;;;;;;;;5093824;28;20051;-31
2023/03/01 10:03:15;;;;;;;14.90;9.07;;;;;;;;;;5117391;28;20462;-34
2023/03/01 10:05:41;;;;;;;12.52;8.82;;;;;;;;;;5115561;28;20073;-30
2023/03/01 10:08:13;;;;;;;13.90;9.05;;;;;;;;;;5115477;28;20024;-35
2023/03/01 10:10:40;;;;;;;30.65;18.20;;;;;;;;;;5115521;28;20405;-33
2023/03/01 10:13:20;;;;;;;27.10;17.25;;;;;;;;;;5114019;28;20024;-31
2023/03/01 10:15:55;;;;;;;22.98;16.08;;;;;;;;;;5116322;28;20013;-30
2023/03/01 10:18:22;;;;;;;23.02;15.13;;;;;;;;;;5115574;28;20015;-35
2023/03/01 10:20:57;;;;;;;22.85;15.63;;;;;;;;;;5115428;28;20027;-36
2023/03/01 10:23:24;;;;;;;22.50;15.10;;;;;;;;;;5115317;28;20106;-38
2023/03/01 10:25:56;;;;;;;24.10;14.52;;;;;;;;;;5115365;27;20024;-31
2023/03/01 10:28:31;;;;;;;20.98;13.82;;;;;;;;;;5115223;28;20024;-35
2023/03/01 10:30:59;;;;;;;19.42;12.90;;;;;;;;;;5115146;28;20019;-31
2023/03/01 10:33:27;;;;;;;22.00;14.75;;;;;;;;;;5115221;28;20031;-31
2023/03/01 10:35:53;;;;;;;17.67;12.18;;;;;;;;;;5114855;28;20034;-41
2023/03/01 10:38:20;;;;;;;22.20;12.43;;;;;;;;;;5115009;28;20574;-30
2023/03/01 10:40:54;;;;;;;21.40;12.98;;;;;;;;;;5115139;28;20035;-33
2023/03/01 10:43:20;;;;;;;18.45;11.88;;;;;;;;;;5115128;28;20060;-32
2023/03/01 10:45:47;;;;;;;18.23;11.80;;;;;;;;;;5116119;28;20031;-37
2023/03/01 10:48:18;;;;;;;19.30;11.65;;;;;;;;;;5115156;28;20019;-31
2023/03/01 10:50:48;;;;;;;19.90;11.43;;;;;;;;;;5114694;28;20035;-39
2023/03/01 10:53:23;;;;;;;15.38;10.65;;;;;;;;;;5114701;28;20525;-31
2023/03/01 10:55:56;;;;;;;17.75;10.77;;;;;;;;;;5114466;28;20439;-32
2023/03/01 10:58:22;;;;;;;20.13;10.48;;;;;;;;;;5114695;28;20024;-32
2023/03/01 11:00:56;;;;;;;15.02;10.00;;;;;;;;;;5114459;28;20035;-39
2023/03/01 11:03:25;;;;;;;17.33;10.67;;;;;;;;;;5115629;28;20026;-39
2023/03/01 11:06:14;;;;;;;14.05;9.27;;;;;;;;;;5113986;28;20804;-40
2023/03/01 11:08:41;;;;;;;16.90;10.50;;;;;;;;;;5108835;28;20040;-32
2023/03/01 11:11:15;;;;;;;13.65;8.98;;;;;;;;;;5114455;28;20385;-36
2023/03/01 11:13:50;;;;;;;15.15;9.77;;;;;;;;;;5114364;28;20055;-42
2023/03/01 11:16:22;;;;;;;14.20;8.75;;;;;;;;;;5114133;27;20023;-40
2023/03/01 11:18:56;;;;;;;14.95;9.10;;;;;;;;;;5114376;28;20099;-42
2023/03/01 11:21:22;;;;;;;15.75;9.43;;;;;;;;;;5114288;28;20020;-33
2023/03/01 11:23:48;;;;;;;12.43;8.60;;;;;;;;;;5114157;28;20016;-33
2023/03/01 11:26:16;;;;;;;13.95;8.65;;;;;;;;;;5113916;28;20022;-32
2023/03/01 11:28:43;;;;;;;12.85;8.18;;;;;;;;;;5114126;28;20030;-33
2023/03/01 11:31:13;;;;;;;13.02;8.15;;;;;;;;;;5113973;28;20106;-31
2023/03/01 11:33:48;;;;;;;13.13;8.30;;;;;;;;;;5114121;28;20473;-35
2023/03/01 11:36:27;;;;;;;14.95;7.95;;;;;;;;;;5113683;28;20118;-35
2023/03/01 11:38:54;;;;;;;11.68;7.78;;;;;;;;;;5113890;28;20028;-32
2023/03/01 11:41:29;;;;;;;12.20;8.05;;;;;;;;;;5115245;28;20492;-32
2023/03/01 11:44:03;;;;;;;12.95;8.02;;;;;;;;;;5113830;28;20058;-41
2023/03/01 11:46:32;;;;;;;12.82;7.43;;;;;;;;;;5113554;28;20031;-39
2023/03/01 11:49:17;;;;;;;13.30;7.28;;;;;;;;;;5113565;28;20023;-42
2023/03/01 11:52:01;;;;;;;12.05;7.75;;;;;;;;;;5113557;28;20027;-37
2023/03/01 11:54:46;;;;;;;11.18;7.60;;;;;;;;;;5112957;28;20024;-35
2023/03/01 11:57:12;;;;;;;11.25;7.30;;;;;;;;;;5113947;28;20023;-38
2023/03/01 11:59:47;;;;;;;11.77;7.60;;;;;;;;;;5113250;28;20501;-42
2023/03/01 12:02:13;;;;;;;12.35;7.45;;;;;;;;;;5113408;28;20473;-31
2023/03/01 12:04:48;;;;;;;11.85;7.30;;;;;;;;;;5113370;27;20027;-31
2023/03/01 12:07:23;;;;;;;10.68;7.07;;;;;;;;;;5113115;28;20363;-33
2023/03/01 12:09:59;;;;;;;11.90;7.53;;;;;;;;;;5113258;28;20024;-35
2023/03/01 12:12:37;;;;;;;10.07;6.93;;;;;;;;;;5113285;28;20511;-33
2023/03/01 12:15:22;;;;;;;10.07;6.78;;;;;;;;;;5113221;28;20076;-30
2023/03/01 12:17:48;;;;;;;;;;;;;;;;;;5113249;28;20110;-39
2023/03/01 12:20:17;;;;;;;13.15;7.22;;;;;;;;;;5113040;28;19990;-36
2023/03/01 12:22:43;;;;;;;10.88;6.32;;;;;;;;;;5113024;28;20016;-42
2023/03/01 12:25:36;;;;;;;10.98;6.78;;;;;;;;;;5114211;28;20039;-42
2023/03/01 12:28:21;;;;;;;11.63;6.80;;;;;;;;;;5109819;28;20451;-32
2023/03/01 12:31:13;;;;;;;23.92;13.40;;;;;;;;;;5112771;28;20036;-40
2023/03/01 12:33:51;;;;;;;20.77;13.43;;;;;;;;;;5096542;28;20035;-33
2023/03/01 12:36:23;;;;;;;19.92;13.75;;;;;;;;;;5112881;28;20027;-32
2023/03/01 12:38:50;;;;;;;16.67;12.07;;;;;;;;;;5113096;28;20085;-31
2023/03/01 12:41:22;;;;;;;18.13;12.10;;;;;;;;;;5113626;28;20055;-41
2023/03/01 12:44:00;;;;;;;15.63;11.38;;;;;;;;;;5112637;28;20015;-34
2023/03/01 12:46:29;;;;;;;17.33;11.02;;;;;;;;;;5110988;28;20019;-40
2023/03/01 12:48:55;;;;;;;16.45;11.00;;;;;;;;;;5112621;28;20032;-42
2023/03/01 12:51:24;;;;;;;15.18;10.52;;;;;;;;;;5112831;28;20034;-42
2023/03/01 12:53:51;;;;;;;13.35;9.40;;;;;;;;;;5112452;28;20029;-33
2023/03/01 12:56:20;;;;;;;16.75;10.27;;;;;;;;;;5112148;28;20027;-35
2023/03/01 12:59:03;;;;;;;14.40;9.38;;;;;;;;;;5112169;28;20027;-38
2023/03/01 13:01:35;;;;;;;13.38;9.02;;;;;;;;;;5112285;28;20385;-31
2023/03/01 13:04:20;;;;;;;14.13;8.23;;;;;;;;;;5112596;28;20550;-31
2023/03/01 13:07:05;;;;;;;15.50;8.45;;;;;;;;;;5111954;28;20070;-30
2023/03/01 13:09:50;;;;;;;12.60;8.00;;;;;;;;;;5112578;28;20053;-31
2023/03/01 13:12:34;;;;;;;13.50;7.63;;;;;;;;;;5112237;28;20427;-35
2023/03/01 13:15:00;;;;;;;10.82;7.28;;;;;;;;;;5112189;28;20042;-40
2023/03/01 13:17:30;;;;;;;11.35;7.22;;;;;;;;;;5111867;28;20094;-38
2023/03/01 13:19:57;;;;;;;11.52;7.03;;;;;;;;;;5112554;28;20054;-40
2023/03/01 13:22:29;;;;;;;11.50;7.35;;;;;;;;;;5111568;28;20019;-37
2023/03/01 13:25:02;;;;;;;12.48;6.90;;;;;;;;;;5111865;28;20094;-41
2023/03/01 13:27:29;;;;;;;11.32;7.40;;;;;;;;;;5111289;28;20046;-40
2023/03/01 13:30:06;;;;;;;21.52;14.15;;;;;;;;;;5111830;28;20106;-38
2023/03/01 13:32:32;;;;;;;22.67;14.95;;;;;;;;;;5111724;28;20020;-40
2023/03/01 13:35:22;;;;;;;23.45;15.68;;;;;;;;;;5111887;28;20026;-40
2023/03/01 13:37:48;;;;;;;26.10;15.50;;;;;;;;;;5102123;28;20397;-37
2023/03/01 13:40:18;;;;;;;24.55;15.75;;;;;;;;;;5111812;28;20020;-42
2023/03/01 13:42:46;;;;;;;26.13;15.70;;;;;;;;;;5111512;28;20026;-39
2023/03/01 13:45:25;;;;;;;22.80;15.13;;;;;;;;;;5111641;28;20076;-41
2023/03/01 13:47:57;;;;;;;23.55;14.02;;;;;;;;;;5111455;28;20473;-41
2023/03/01 13:50:24;;;;;;;25.08;15.00;;;;;;;;;;5111601;28;20034;-39
2023/03/01 13:52:58;;;;;;;26.08;15.43;;;;;;;;;;5111569;28;20089;-39
2023/03/01 13:55:37;;;;;;;20.95;14.43;;;;;;;;;;5111511;28;20032;-39
2023/03/01 13:58:04;;;;;;;23.35;14.77;;;;;;;;;;5111604;28;20027;-41
2023/03/01 14:00:33;;;;;;;22.23;15.32;;;;;;;;;;5110205;28;20042;-38
2023/03/01 14:03:19;;;;;;;22.88;15.20;;;;;;;;;;5111615;28;20028;-39
2023/03/01 14:06:01;;;;;;;23.02;14.65;;;;;;;;;;5111348;28;20011;-42
2023/03/01 14:08:28;;;;;;;22.95;15.02;;;;;;;;;;5111936;28;20024;-40
2023/03/01 14:11:00;;;;;;;23.08;15.55;;;;;;;;;;5111411;28;20020;-40
2023/03/01 14:13:32;;;;;;;22.65;15.68;;;;;;;;;;5111531;28;20481;-38
2023/03/01 14:16:04;;;;;;;24.35;16.00;;;;;;;;;;5111192;28;20042;-36
2023/03/01 14:18:36;;;;;;;25.35;16.58;;;;;;;;;;5111427;28;20028;-39
2023/03/01 14:21:07;;;;;;;25.48;16.55;;;;;;;;;;5111369;28;20034;-39
2023/03/01 14:23:35;;;;;;;24.63;16.27;;;;;;;;;;5110088;28;20028;-39
2023/03/01 14:26:01;;;;;;;23.77;15.70;;;;;;;;;;5111054;28;20031;-38
2023/03/01 14:28:28;;;;;;;26.00;15.73;;;;;;;;;;5111235;28;20483;-41
2023/03/01 14:30:55;;;;;;;26.95;16.85;;;;;;;;;;5111201;28;20020;-40
2023/03/01 14:33:21;;;;;;;25.85;16.42;;;;;;;;;;5111248;28;20028;-40
2023/03/01 14:36:04;;;;;;;28.02;17.27;;;;;;;;;;5111070;28;20042;-40
2023/03/01 14:38:30;;;;;;;31.70;17.02;;;;;;;;;;5111271;28;20120;-39